sensor_id;sensor_type;location;lat;lon;timestamp;pressure;altitude;pressure_sealevel;temperature;humidity
54459;BME280;40368;49.350;8.152;2023-08-06T00:00:53;993.2;;;23.21;52.79
54459;BME280;40368;49.350;8.152;2023-08-06T00:01:53;993.2;;;23.21;53.13
54459;BME280;40368;49.350;8.152;2023-08-06T00:02:52;993.2;;;23.2;53.1
54459;BME280;40368;49.350;8.152;2023-08-06T00:03:53;993.2;;;23.19;53.06
54459;BME280;40368;49.350;8.152;2023-08-06T00:04:53;993.1;;;23.19;53.14
54459;BME280;40368;49.350;8.152;2023-08-06T00:05:52;993.1;;;23.19;53.03
54459;BME280;40368;49.350;8.152;2023-08-06T00:06:53;993.1;;;23.19;53.22
54459;BME280;40368;49.350;8.152;2023-08-06T00:07:53;993.1;;;23.18;52.98
54459;BME280;40368;49.350;8.152;2023-08-06T00:08:53;993.1;;;23.18;52.83
54459;BME280;40368;49.350;8.152;2023-08-06T00:09:53;993;;;23.17;52.91
54459;BME280;40368;49.350;8.152;2023-08-06T00:10:53;993;;;23.17;52.92
54459;BME280;40368;49.350;8.152;2023-08-06T00:11:52;993;;;23.17;52.94
54459;BME280;40368;49.350;8.152;2023-08-06T00:12:53;993;;;23.15;53.01
54459;BME280;40368;49.350;8.152;2023-08-06T00:13:52;993;;;23.14;52.97
54459;BME280;40368;49.350;8.152;2023-08-06T00:14:53;992.9;;;23.13;53.02
54459;BME280;40368;49.350;8.152;2023-08-06T00:15:52;992.9;;;23.13;53.07
54459;BME280;40368;49.350;8.152;2023-08-06T00:16:53;992.9;;;23.11;52.96
54459;BME280;40368;49.350;8.152;2023-08-06T00:17:53;992.9;;;23.1;53.13
54459;BME280;40368;49.350;8.152;2023-08-06T00:18:53;992.9;;;23.1;53.17
54459;BME280;40368;49.350;8.152;2023-08-06T00:19:53;992.9;;;23.09;53.03
54459;BME280;40368;49.350;8.152;2023-08-06T00:20:53;992.9;;;23.1;53.04
54459;BME280;40368;49.350;8.152;2023-08-06T00:21:52;992.9;;;23.1;52.94
54459;BME280;40368;49.350;8.152;2023-08-06T00:22:53;992.8;;;23.1;52.91
54459;BME280;40368;49.350;8.152;2023-08-06T00:23:53;992.8;;;23.1;52.85
54459;BME280;40368;49.350;8.152;2023-08-06T00:24:53;992.8;;;23.1;52.86
54459;BME280;40368;49.350;8.152;2023-08-06T00:25:53;992.8;;;23.09;52.83
54459;BME280;40368;49.350;8.152;2023-08-06T00:26:53;992.8;;;23.08;52.79
54459;BME280;40368;49.350;8.152;2023-08-06T00:27:53;992.8;;;23.07;52.9
54459;BME280;40368;49.350;8.152;2023-08-06T00:28:53;992.8;;;23.06;52.96
54459;BME280;40368;49.350;8.152;2023-08-06T00:30:53;992.8;;;23.05;52.85
54459;BME280;40368;49.350;8.152;2023-08-06T00:31:52;992.7;;;23.06;52.91
54459;BME280;40368;49.350;8.152;2023-08-06T00:32:53;992.8;;;23.05;52.9
54459;BME280;40368;49.350;8.152;2023-08-06T00:33:52;992.8;;;23.04;52.88
54459;BME280;40368;49.350;8.152;2023-08-06T00:34:53;992.8;;;23.04;52.61
54459;BME280;40368;49.350;8.152;2023-08-06T00:35:52;992.8;;;23.03;52.88
54459;BME280;40368;49.350;8.152;2023-08-06T00:36:53;992.8;;;23.03;52.78
54459;BME280;40368;49.350;8.152;2023-08-06T00:37:53;992.7;;;23.01;52.85
54459;BME280;40368;49.350;8.152;2023-08-06T00:38:53;992.8;;;23;52.94
54459;BME280;40368;49.350;8.152;2023-08-06T00:39:52;992.9;;;23;52.93
54459;BME280;40368;49.350;8.152;2023-08-06T00:40:53;992.8;;;22.98;52.91
54459;BME280;40368;49.350;8.152;2023-08-06T00:41:53;992.8;;;22.98;52.81
54459;BME280;40368;49.350;8.152;2023-08-06T00:42:53;992.8;;;22.97;52.96
54459;BME280;40368;49.350;8.152;2023-08-06T00:43:52;992.7;;;22.98;52.85
54459;BME280;40368;49.350;8.152;2023-08-06T00:44:53;992.7;;;22.97;53.04
54459;BME280;40368;49.350;8.152;2023-08-06T00:45:53;992.7;;;22.93;52.88
54459;BME280;40368;49.350;8.152;2023-08-06T00:46:53;992.7;;;22.93;53.02
54459;BME280;40368;49.350;8.152;2023-08-06T00:47:52;992.7;;;22.93;52.94
54459;BME280;40368;49.350;8.152;2023-08-06T00:48:53;992.7;;;22.95;52.69
54459;BME280;40368;49.350;8.152;2023-08-06T00:49:53;992.7;;;22.96;52.82
54459;BME280;40368;49.350;8.152;2023-08-06T00:50:53;992.7;;;22.96;52.7
54459;BME280;40368;49.350;8.152;2023-08-06T00:51:53;992.7;;;22.96;52.72
54459;BME280;40368;49.350;8.152;2023-08-06T00:52:53;992.6;;;22.97;52.67
54459;BME280;40368;49.350;8.152;2023-08-06T00:53:53;992.6;;;22.95;53
54459;BME280;40368;49.350;8.152;2023-08-06T00:54:53;992.5;;;22.94;52.76
54459;BME280;40368;49.350;8.152;2023-08-06T00:55:53;992.6;;;22.94;52.88
54459;BME280;40368;49.350;8.152;2023-08-06T00:56:53;992.5;;;22.94;52.88
54459;BME280;40368;49.350;8.152;2023-08-06T00:57:52;992.5;;;22.96;52.89
54459;BME280;40368;49.350;8.152;2023-08-06T00:58:52;992.5;;;22.97;52.84
54459;BME280;40368;49.350;8.152;2023-08-06T00:59:53;992.5;;;22.94;52.86
54459;BME280;40368;49.350;8.152;2023-08-06T01:00:53;992.4;;;22.95;52.94
54459;BME280;40368;49.350;8.152;2023-08-06T01:01:53;992.4;;;22.94;52.62
54459;BME280;40368;49.350;8.152;2023-08-06T01:02:53;992.4;;;22.96;52.74
54459;BME280;40368;49.350;8.152;2023-08-06T01:03:53;992.4;;;22.97;52.64
54459;BME280;40368;49.350;8.152;2023-08-06T01:04:52;992.4;;;22.98;52.51
54459;BME280;40368;49.350;8.152;2023-08-06T01:05:53;992.4;;;22.97;52.55
54459;BME280;40368;49.350;8.152;2023-08-06T01:06:55;992.3;;;22.97;52.53
54459;BME280;40368;49.350;8.152;2023-08-06T01:07:57;992.3;;;22.97;52.84
54459;BME280;40368;49.350;8.152;2023-08-06T01:08:54;992.3;;;22.94;52.86
54459;BME280;40368;49.350;8.152;2023-08-06T01:09:55;992.3;;;22.94;52.68
54459;BME280;40368;49.350;8.152;2023-08-06T01:10:57;992.3;;;22.92;52.66
54459;BME280;40368;49.350;8.152;2023-08-06T01:11:54;992.2;;;22.91;52.74
54459;BME280;40368;49.350;8.152;2023-08-06T01:12:55;992.2;;;22.9;52.74
54459;BME280;40368;49.350;8.152;2023-08-06T01:13:54;992.3;;;22.9;52.78
54459;BME280;40368;49.350;8.152;2023-08-06T01:14:53;992.2;;;22.89;52.71
54459;BME280;40368;49.350;8.152;2023-08-06T01:15:54;992.2;;;22.9;52.81
54459;BME280;40368;49.350;8.152;2023-08-06T01:16:53;992.1;;;22.87;52.81
54459;BME280;40368;49.350;8.152;2023-08-06T01:17:53;992.1;;;22.83;52.65
54459;BME280;40368;49.350;8.152;2023-08-06T01:18:53;992.1;;;22.82;52.85
54459;BME280;40368;49.350;8.152;2023-08-06T01:19:53;992.1;;;22.79;52.92
54459;BME280;40368;49.350;8.152;2023-08-06T01:20:53;992.1;;;22.77;52.82
54459;BME280;40368;49.350;8.152;2023-08-06T01:21:53;992;;;22.79;52.91
54459;BME280;40368;49.350;8.152;2023-08-06T01:22:53;992;;;22.8;52.89
54459;BME280;40368;49.350;8.152;2023-08-06T01:23:53;992;;;22.8;52.83
54459;BME280;40368;49.350;8.152;2023-08-06T01:24:53;992;;;22.81;53
54459;BME280;40368;49.350;8.152;2023-08-06T01:25:55;992;;;22.8;52.9
54459;BME280;40368;49.350;8.152;2023-08-06T01:26:54;992;;;22.79;52.72
54459;BME280;40368;49.350;8.152;2023-08-06T01:27:53;991.9;;;22.79;52.77
54459;BME280;40368;49.350;8.152;2023-08-06T01:28:54;992;;;22.77;52.86
54459;BME280;40368;49.350;8.152;2023-08-06T01:29:56;991.9;;;22.76;52.63
54459;BME280;40368;49.350;8.152;2023-08-06T01:30:53;991.9;;;22.76;52.47
54459;BME280;40368;49.350;8.152;2023-08-06T01:31:53;991.8;;;22.74;52.55
54459;BME280;40368;49.350;8.152;2023-08-06T01:32:53;991.9;;;22.71;52.48
54459;BME280;40368;49.350;8.152;2023-08-06T01:33:53;992;;;22.72;52.43
54459;BME280;40368;49.350;8.152;2023-08-06T01:34:53;991.9;;;22.67;52.69
54459;BME280;40368;49.350;8.152;2023-08-06T01:35:53;992;;;22.64;52.53
54459;BME280;40368;49.350;8.152;2023-08-06T01:36:53;992;;;22.65;52.67
54459;BME280;40368;49.350;8.152;2023-08-06T01:37:53;991.9;;;22.64;52.64
54459;BME280;40368;49.350;8.152;2023-08-06T01:38:53;991.9;;;22.63;52.37
54459;BME280;40368;49.350;8.152;2023-08-06T01:39:53;992;;;22.64;52.45
54459;BME280;40368;49.350;8.152;2023-08-06T01:40:53;992;;;22.65;52.52
54459;BME280;40368;49.350;8.152;2023-08-06T01:41:53;992;;;22.61;52.57
54459;BME280;40368;49.350;8.152;2023-08-06T01:42:53;991.9;;;22.6;52.31
54459;BME280;40368;49.350;8.152;2023-08-06T01:43:52;991.9;;;22.61;52.42
54459;BME280;40368;49.350;8.152;2023-08-06T01:44:53;992;;;22.64;52.47
54459;BME280;40368;49.350;8.152;2023-08-06T01:45:53;991.9;;;22.64;52.45
54459;BME280;40368;49.350;8.152;2023-08-06T01:46:54;991.9;;;22.64;52.13
54459;BME280;40368;49.350;8.152;2023-08-06T01:47:53;991.9;;;22.63;52.01
54459;BME280;40368;49.350;8.152;2023-08-06T01:48:53;991.9;;;22.65;52.04
54459;BME280;40368;49.350;8.152;2023-08-06T01:49:53;991.9;;;22.65;52.08
54459;BME280;40368;49.350;8.152;2023-08-06T01:50:53;991.9;;;22.67;52.06
54459;BME280;40368;49.350;8.152;2023-08-06T01:51:52;991.9;;;22.67;52.13
54459;BME280;40368;49.350;8.152;2023-08-06T01:52:53;991.8;;;22.67;52.03
54459;BME280;40368;49.350;8.152;2023-08-06T01:53:53;991.9;;;22.69;52.32
54459;BME280;40368;49.350;8.152;2023-08-06T01:54:53;991.9;;;22.7;52.05
54459;BME280;40368;49.350;8.152;2023-08-06T01:55:53;991.9;;;22.67;52.03
54459;BME280;40368;49.350;8.152;2023-08-06T01:56:53;991.9;;;22.66;51.99
54459;BME280;40368;49.350;8.152;2023-08-06T01:57:53;991.9;;;22.68;52.06
54459;BME280;40368;49.350;8.152;2023-08-06T01:58:53;991.9;;;22.69;52.02
54459;BME280;40368;49.350;8.152;2023-08-06T01:59:53;992;;;22.7;51.78
54459;BME280;40368;49.350;8.152;2023-08-06T02:00:53;991.9;;;22.7;51.77
54459;BME280;40368;49.350;8.152;2023-08-06T02:01:52;991.9;;;22.7;51.96
54459;BME280;40368;49.350;8.152;2023-08-06T02:02:53;991.9;;;22.7;51.71
54459;BME280;40368;49.350;8.152;2023-08-06T02:03:53;991.9;;;22.69;51.7
54459;BME280;40368;49.350;8.152;2023-08-06T02:04:52;991.9;;;22.69;51.8
54459;BME280;40368;49.350;8.152;2023-08-06T02:05:53;991.9;;;22.7;51.66
54459;BME280;40368;49.350;8.152;2023-08-06T02:06:53;991.9;;;22.69;51.71
54459;BME280;40368;49.350;8.152;2023-08-06T02:07:53;991.9;;;22.7;51.74
54459;BME280;40368;49.350;8.152;2023-08-06T02:08:53;991.8;;;22.7;51.54
54459;BME280;40368;49.350;8.152;2023-08-06T02:09:53;991.8;;;22.7;51.66
54459;BME280;40368;49.350;8.152;2023-08-06T02:10:53;991.8;;;22.69;51.48
54459;BME280;40368;49.350;8.152;2023-08-06T02:11:53;991.8;;;22.68;51.59
54459;BME280;40368;49.350;8.152;2023-08-06T02:12:52;991.8;;;22.68;51.73
54459;BME280;40368;49.350;8.152;2023-08-06T02:13:53;991.8;;;22.67;51.5
54459;BME280;40368;49.350;8.152;2023-08-06T02:14:53;991.9;;;22.67;51.42
54459;BME280;40368;49.350;8.152;2023-08-06T02:15:52;991.9;;;22.65;51.33
54459;BME280;40368;49.350;8.152;2023-08-06T02:16:53;991.9;;;22.64;51.5
54459;BME280;40368;49.350;8.152;2023-08-06T02:17:53;991.9;;;22.61;51.33
54459;BME280;40368;49.350;8.152;2023-08-06T02:18:53;991.9;;;22.59;51.32
54459;BME280;40368;49.350;8.152;2023-08-06T02:19:53;991.9;;;22.58;51.41
54459;BME280;40368;49.350;8.152;2023-08-06T02:20:56;991.8;;;22.56;51.61
54459;BME280;40368;49.350;8.152;2023-08-06T02:21:53;991.9;;;22.52;51.07
54459;BME280;40368;49.350;8.152;2023-08-06T02:22:53;991.8;;;22.45;51.04
54459;BME280;40368;49.350;8.152;2023-08-06T02:23:53;991.8;;;22.41;51.01
54459;BME280;40368;49.350;8.152;2023-08-06T02:24:53;991.8;;;22.37;50.6
54459;BME280;40368;49.350;8.152;2023-08-06T02:26:00;991.7;;;22.37;50.47
54459;BME280;40368;49.350;8.152;2023-08-06T02:26:53;991.7;;;22.34;50.33
54459;BME280;40368;49.350;8.152;2023-08-06T02:27:52;991.8;;;22.34;49.95
54459;BME280;40368;49.350;8.152;2023-08-06T02:28:53;991.8;;;22.31;49.89
54459;BME280;40368;49.350;8.152;2023-08-06T02:29:53;991.8;;;22.26;49.67
54459;BME280;40368;49.350;8.152;2023-08-06T02:30:53;991.9;;;22.22;49.9
54459;BME280;40368;49.350;8.152;2023-08-06T02:31:52;991.9;;;22.2;50.01
54459;BME280;40368;49.350;8.152;2023-08-06T02:32:53;991.8;;;22.22;50.04
54459;BME280;40368;49.350;8.152;2023-08-06T02:33:53;991.8;;;22.24;50.07
54459;BME280;40368;49.350;8.152;2023-08-06T02:34:53;991.8;;;22.27;49.91
54459;BME280;40368;49.350;8.152;2023-08-06T02:35:58;991.8;;;22.28;49.99
54459;BME280;40368;49.350;8.152;2023-08-06T02:36:53;991.8;;;22.29;49.67
54459;BME280;40368;49.350;8.152;2023-08-06T02:37:53;991.8;;;22.27;49.83
54459;BME280;40368;49.350;8.152;2023-08-06T02:38:52;991.7;;;22.3;49.92
54459;BME280;40368;49.350;8.152;2023-08-06T02:39:52;991.7;;;22.3;49.33
54459;BME280;40368;49.350;8.152;2023-08-06T02:40:53;991.7;;;22.29;49.82
54459;BME280;40368;49.350;8.152;2023-08-06T02:41:53;991.7;;;22.31;49.88
54459;BME280;40368;49.350;8.152;2023-08-06T02:42:53;991.8;;;22.31;49.51
54459;BME280;40368;49.350;8.152;2023-08-06T02:43:53;991.8;;;22.27;49.76
54459;BME280;40368;49.350;8.152;2023-08-06T02:44:53;991.8;;;22.22;49.77
54459;BME280;40368;49.350;8.152;2023-08-06T02:45:56;991.7;;;22.2;49.77
54459;BME280;40368;49.350;8.152;2023-08-06T02:46:53;991.7;;;22.2;49.67
54459;BME280;40368;49.350;8.152;2023-08-06T02:47:53;991.7;;;22.21;50.14
54459;BME280;40368;49.350;8.152;2023-08-06T02:48:53;991.7;;;22.21;49.81
54459;BME280;40368;49.350;8.152;2023-08-06T02:49:53;991.7;;;22.22;49.91
54459;BME280;40368;49.350;8.152;2023-08-06T02:50:53;991.7;;;22.24;49.95
54459;BME280;40368;49.350;8.152;2023-08-06T02:51:53;991.7;;;22.27;50.29
54459;BME280;40368;49.350;8.152;2023-08-06T02:52:53;991.7;;;22.3;50.61
54459;BME280;40368;49.350;8.152;2023-08-06T02:53:53;991.6;;;22.33;50.85
54459;BME280;40368;49.350;8.152;2023-08-06T02:54:53;991.6;;;22.36;50.76
54459;BME280;40368;49.350;8.152;2023-08-06T02:55:53;991.6;;;22.39;50.77
54459;BME280;40368;49.350;8.152;2023-08-06T02:56:53;991.7;;;22.36;50.94
54459;BME280;40368;49.350;8.152;2023-08-06T02:57:53;991.6;;;22.34;50.98
54459;BME280;40368;49.350;8.152;2023-08-06T02:58:53;991.6;;;22.35;50.8
54459;BME280;40368;49.350;8.152;2023-08-06T02:59:53;991.5;;;22.37;50.75
54459;BME280;40368;49.350;8.152;2023-08-06T03:01:01;991.6;;;22.38;50.5
54459;BME280;40368;49.350;8.152;2023-08-06T03:02:53;991.5;;;22.38;50.41
54459;BME280;40368;49.350;8.152;2023-08-06T03:03:53;991.6;;;22.31;49.99
54459;BME280;40368;49.350;8.152;2023-08-06T03:04:53;991.4;;;22.28;50.15
54459;BME280;40368;49.350;8.152;2023-08-06T03:05:53;991.4;;;22.28;49.66
54459;BME280;40368;49.350;8.152;2023-08-06T03:06:53;991.4;;;22.25;49.94
54459;BME280;40368;49.350;8.152;2023-08-06T03:07:53;991.5;;;22.2;49.71
54459;BME280;40368;49.350;8.152;2023-08-06T03:08:53;991.4;;;22.12;49.77
54459;BME280;40368;49.350;8.152;2023-08-06T03:09:53;991.3;;;22.11;49.91
54459;BME280;40368;49.350;8.152;2023-08-06T03:10:53;991.3;;;22.14;49.87
54459;BME280;40368;49.350;8.152;2023-08-06T03:11:52;991.4;;;22.14;49.72
54459;BME280;40368;49.350;8.152;2023-08-06T03:12:53;991.4;;;22.1;49.69
54459;BME280;40368;49.350;8.152;2023-08-06T03:13:53;991.4;;;22.04;49.57
54459;BME280;40368;49.350;8.152;2023-08-06T03:14:53;991.4;;;21.99;49.91
54459;BME280;40368;49.350;8.152;2023-08-06T03:15:53;991.4;;;21.98;50.05
54459;BME280;40368;49.350;8.152;2023-08-06T03:16:53;991.4;;;21.96;49.99
54459;BME280;40368;49.350;8.152;2023-08-06T03:17:55;991.4;;;21.97;50.2
54459;BME280;40368;49.350;8.152;2023-08-06T03:18:53;991.4;;;22;50.07
54459;BME280;40368;49.350;8.152;2023-08-06T03:19:53;991.4;;;21.99;50.04
54459;BME280;40368;49.350;8.152;2023-08-06T03:20:53;991.4;;;21.97;50.33
54459;BME280;40368;49.350;8.152;2023-08-06T03:21:53;991.4;;;21.98;50.27
54459;BME280;40368;49.350;8.152;2023-08-06T03:22:53;991.4;;;21.96;50.32
54459;BME280;40368;49.350;8.152;2023-08-06T03:23:53;991.4;;;21.96;50.39
54459;BME280;40368;49.350;8.152;2023-08-06T03:24:53;991.4;;;21.98;49.99
54459;BME280;40368;49.350;8.152;2023-08-06T03:25:54;991.4;;;21.99;50.4
54459;BME280;40368;49.350;8.152;2023-08-06T03:26:53;991.4;;;22;50.38
54459;BME280;40368;49.350;8.152;2023-08-06T03:27:53;991.4;;;22.02;50.28
54459;BME280;40368;49.350;8.152;2023-08-06T03:28:53;991.4;;;22.05;50.37
54459;BME280;40368;49.350;8.152;2023-08-06T03:29:53;991.5;;;22.04;50.48
54459;BME280;40368;49.350;8.152;2023-08-06T03:30:58;991.5;;;22.02;50.47
54459;BME280;40368;49.350;8.152;2023-08-06T03:31:53;991.4;;;22.01;50.66
54459;BME280;40368;49.350;8.152;2023-08-06T03:32:53;991.4;;;22;50.63
54459;BME280;40368;49.350;8.152;2023-08-06T03:33:53;991.5;;;22.01;50.75
54459;BME280;40368;49.350;8.152;2023-08-06T03:34:53;991.5;;;22.04;50.68
54459;BME280;40368;49.350;8.152;2023-08-06T03:35:53;991.5;;;22.05;50.81
54459;BME280;40368;49.350;8.152;2023-08-06T03:36:53;991.5;;;22.07;50.71
54459;BME280;40368;49.350;8.152;2023-08-06T03:37:53;991.6;;;22.11;51
54459;BME280;40368;49.350;8.152;2023-08-06T03:38:53;991.5;;;22.1;51.01
54459;BME280;40368;49.350;8.152;2023-08-06T03:39:53;991.5;;;22.11;51.25
54459;BME280;40368;49.350;8.152;2023-08-06T03:40:53;991.5;;;22.12;51.34
54459;BME280;40368;49.350;8.152;2023-08-06T03:42:53;991.5;;;22.12;51.4
54459;BME280;40368;49.350;8.152;2023-08-06T03:43:53;991.5;;;22.13;51.79
54459;BME280;40368;49.350;8.152;2023-08-06T03:44:53;991.5;;;22.13;51.8
54459;BME280;40368;49.350;8.152;2023-08-06T03:45:53;991.5;;;22.12;51.66
54459;BME280;40368;49.350;8.152;2023-08-06T03:46:53;991.5;;;22.14;51.7
54459;BME280;40368;49.350;8.152;2023-08-06T03:47:53;991.4;;;22.14;51.09
54459;BME280;40368;49.350;8.152;2023-08-06T03:48:53;991.5;;;22.08;51.24
54459;BME280;40368;49.350;8.152;2023-08-06T03:49:53;991.4;;;22.06;51.43
54459;BME280;40368;49.350;8.152;2023-08-06T03:50:53;991.3;;;22.1;51.4
54459;BME280;40368;49.350;8.152;2023-08-06T03:51:53;991.4;;;22.09;51.44
54459;BME280;40368;49.350;8.152;2023-08-06T03:52:53;991.3;;;22.02;50.95
54459;BME280;40368;49.350;8.152;2023-08-06T03:53:53;991.3;;;21.96;51.06
54459;BME280;40368;49.350;8.152;2023-08-06T03:54:53;991.4;;;21.97;51.05
54459;BME280;40368;49.350;8.152;2023-08-06T03:55:53;991.3;;;21.98;50.87
54459;BME280;40368;49.350;8.152;2023-08-06T03:56:53;991.4;;;22.01;50.96
54459;BME280;40368;49.350;8.152;2023-08-06T03:57:53;991.3;;;22.01;50.79
54459;BME280;40368;49.350;8.152;2023-08-06T03:58:53;991.3;;;22.04;50.85
54459;BME280;40368;49.350;8.152;2023-08-06T03:59:53;991.3;;;22.07;50.98
54459;BME280;40368;49.350;8.152;2023-08-06T04:00:57;991.3;;;22.07;51.36
54459;BME280;40368;49.350;8.152;2023-08-06T04:01:53;991.3;;;22.07;51.53
54459;BME280;40368;49.350;8.152;2023-08-06T04:02:53;991.2;;;22.08;51.53
54459;BME280;40368;49.350;8.152;2023-08-06T04:03:53;991.3;;;22.11;51.58
54459;BME280;40368;49.350;8.152;2023-08-06T04:04:53;991.3;;;22.12;51.68
54459;BME280;40368;49.350;8.152;2023-08-06T04:05:53;991.2;;;22.14;51.87
54459;BME280;40368;49.350;8.152;2023-08-06T04:06:53;991.3;;;22.15;51.94
54459;BME280;40368;49.350;8.152;2023-08-06T04:07:53;991.3;;;22.17;52.04
54459;BME280;40368;49.350;8.152;2023-08-06T04:08:53;991.3;;;22.19;51.99
54459;BME280;40368;49.350;8.152;2023-08-06T04:09:54;991.3;;;22.18;52.15
54459;BME280;40368;49.350;8.152;2023-08-06T04:10:53;991.4;;;22.16;52.23
54459;BME280;40368;49.350;8.152;2023-08-06T04:11:53;991.3;;;22.17;52.22
54459;BME280;40368;49.350;8.152;2023-08-06T04:12:53;991.3;;;22.19;52.2
54459;BME280;40368;49.350;8.152;2023-08-06T04:13:53;991.3;;;22.07;52.32
54459;BME280;40368;49.350;8.152;2023-08-06T04:14:53;991.3;;;22;52.73
54459;BME280;40368;49.350;8.152;2023-08-06T04:15:53;991.3;;;22.01;52.8
54459;BME280;40368;49.350;8.152;2023-08-06T04:16:53;991.3;;;22.01;52.59
54459;BME280;40368;49.350;8.152;2023-08-06T04:17:53;991.3;;;22.06;52.27
54459;BME280;40368;49.350;8.152;2023-08-06T04:18:53;991.4;;;22.1;52.25
54459;BME280;40368;49.350;8.152;2023-08-06T04:19:53;991.3;;;22.07;51.27
54459;BME280;40368;49.350;8.152;2023-08-06T04:20:53;991.3;;;22.03;51.54
54459;BME280;40368;49.350;8.152;2023-08-06T04:21:53;991.3;;;22.03;51.44
54459;BME280;40368;49.350;8.152;2023-08-06T04:22:54;991.4;;;22.05;51.66
54459;BME280;40368;49.350;8.152;2023-08-06T04:23:53;991.4;;;22.03;51.4
54459;BME280;40368;49.350;8.152;2023-08-06T04:24:53;991.4;;;22;51.04
54459;BME280;40368;49.350;8.152;2023-08-06T04:25:55;991.4;;;21.94;50.99
54459;BME280;40368;49.350;8.152;2023-08-06T04:26:53;991.3;;;21.96;51.07
54459;BME280;40368;49.350;8.152;2023-08-06T04:27:53;991.4;;;21.99;50.81
54459;BME280;40368;49.350;8.152;2023-08-06T04:28:53;991.4;;;21.99;50.57
54459;BME280;40368;49.350;8.152;2023-08-06T04:29:53;991.4;;;21.99;50.58
54459;BME280;40368;49.350;8.152;2023-08-06T04:30:53;991.4;;;21.96;50.54
54459;BME280;40368;49.350;8.152;2023-08-06T04:31:53;991.5;;;21.94;51
54459;BME280;40368;49.350;8.152;2023-08-06T04:32:53;991.4;;;21.96;50.75
54459;BME280;40368;49.350;8.152;2023-08-06T04:33:53;991.4;;;21.99;50.83
54459;BME280;40368;49.350;8.152;2023-08-06T04:34:55;991.4;;;22.01;50.54
54459;BME280;40368;49.350;8.152;2023-08-06T04:35:54;991.5;;;22.03;50.42
54459;BME280;40368;49.350;8.152;2023-08-06T04:36:53;991.4;;;21.97;50.3
54459;BME280;40368;49.350;8.152;2023-08-06T04:37:53;991.4;;;21.91;50.53
54459;BME280;40368;49.350;8.152;2023-08-06T04:38:53;991.4;;;21.94;50.65
54459;BME280;40368;49.350;8.152;2023-08-06T04:39:53;991.4;;;21.97;50.75
54459;BME280;40368;49.350;8.152;2023-08-06T04:40:53;991.4;;;21.96;50.48
54459;BME280;40368;49.350;8.152;2023-08-06T04:41:54;991.4;;;21.93;50.33
54459;BME280;40368;49.350;8.152;2023-08-06T04:42:53;991.3;;;21.85;50.45
54459;BME280;40368;49.350;8.152;2023-08-06T04:43:53;991.4;;;21.84;50.72
54459;BME280;40368;49.350;8.152;2023-08-06T04:44:53;991.4;;;21.85;50.59
54459;BME280;40368;49.350;8.152;2023-08-06T04:45:53;991.3;;;21.84;50.44
54459;BME280;40368;49.350;8.152;2023-08-06T04:46:53;991.4;;;21.78;50.65
54459;BME280;40368;49.350;8.152;2023-08-06T04:47:53;991.4;;;21.79;50.5
54459;BME280;40368;49.350;8.152;2023-08-06T04:48:53;991.4;;;21.8;50.75
54459;BME280;40368;49.350;8.152;2023-08-06T04:49:53;991.4;;;21.79;50.69
54459;BME280;40368;49.350;8.152;2023-08-06T04:50:53;991.4;;;21.81;50.5
54459;BME280;40368;49.350;8.152;2023-08-06T04:51:53;991.4;;;21.79;50.64
54459;BME280;40368;49.350;8.152;2023-08-06T04:52:53;991.4;;;21.83;50.63
54459;BME280;40368;49.350;8.152;2023-08-06T04:53:53;991.4;;;21.86;50.62
54459;BME280;40368;49.350;8.152;2023-08-06T04:54:53;991.4;;;21.86;50.53
54459;BME280;40368;49.350;8.152;2023-08-06T04:55:53;991.4;;;21.82;50.51
54459;BME280;40368;49.350;8.152;2023-08-06T04:56:53;991.4;;;21.81;50.61
54459;BME280;40368;49.350;8.152;2023-08-06T04:57:53;991.4;;;21.79;50.52
54459;BME280;40368;49.350;8.152;2023-08-06T04:58:53;991.5;;;21.76;50.29
54459;BME280;40368;49.350;8.152;2023-08-06T04:59:53;991.5;;;21.71;50.48
54459;BME280;40368;49.350;8.152;2023-08-06T05:00:53;991.5;;;21.7;50.69
54459;BME280;40368;49.350;8.152;2023-08-06T05:01:53;991.4;;;21.75;50.51
54459;BME280;40368;49.350;8.152;2023-08-06T05:02:53;991.4;;;21.8;50.7
54459;BME280;40368;49.350;8.152;2023-08-06T05:03:53;991.4;;;21.83;50.53
54459;BME280;40368;49.350;8.152;2023-08-06T05:05:53;991.5;;;21.91;50.24
54459;BME280;40368;49.350;8.152;2023-08-06T05:06:53;991.4;;;21.91;50.25
54459;BME280;40368;49.350;8.152;2023-08-06T05:07:53;991.4;;;21.83;50.34
54459;BME280;40368;49.350;8.152;2023-08-06T05:08:53;991.5;;;21.8;50.47
54459;BME280;40368;49.350;8.152;2023-08-06T05:09:53;991.5;;;21.79;50.58
54459;BME280;40368;49.350;8.152;2023-08-06T05:10:53;991.4;;;21.83;50.45
54459;BME280;40368;49.350;8.152;2023-08-06T05:11:53;991.5;;;21.88;50.44
54459;BME280;40368;49.350;8.152;2023-08-06T05:12:53;991.5;;;21.91;50.29
54459;BME280;40368;49.350;8.152;2023-08-06T05:13:53;991.5;;;21.91;50.12
54459;BME280;40368;49.350;8.152;2023-08-06T05:14:53;991.5;;;21.87;50.23
54459;BME280;40368;49.350;8.152;2023-08-06T05:15:53;991.4;;;21.86;50.24
54459;BME280;40368;49.350;8.152;2023-08-06T05:16:53;991.5;;;21.82;50.19
54459;BME280;40368;49.350;8.152;2023-08-06T05:17:54;991.4;;;21.81;50.29
54459;BME280;40368;49.350;8.152;2023-08-06T05:18:53;991.5;;;21.85;50.36
54459;BME280;40368;49.350;8.152;2023-08-06T05:19:53;991.5;;;21.84;50.21
54459;BME280;40368;49.350;8.152;2023-08-06T05:20:53;991.5;;;21.84;50.12
54459;BME280;40368;49.350;8.152;2023-08-06T05:21:52;991.5;;;21.9;50.53
54459;BME280;40368;49.350;8.152;2023-08-06T05:22:53;991.4;;;21.93;50.37
54459;BME280;40368;49.350;8.152;2023-08-06T05:23:53;991.5;;;21.97;50.44
54459;BME280;40368;49.350;8.152;2023-08-06T05:24:53;991.4;;;21.96;50.98
54459;BME280;40368;49.350;8.152;2023-08-06T05:25:53;991.4;;;21.88;50.73
54459;BME280;40368;49.350;8.152;2023-08-06T05:26:53;991.4;;;21.83;50.9
54459;BME280;40368;49.350;8.152;2023-08-06T05:27:53;991.5;;;21.8;50.86
54459;BME280;40368;49.350;8.152;2023-08-06T05:28:53;991.5;;;21.81;50.91
54459;BME280;40368;49.350;8.152;2023-08-06T05:29:54;991.5;;;21.84;51.07
54459;BME280;40368;49.350;8.152;2023-08-06T05:30:53;991.4;;;21.88;50.86
54459;BME280;40368;49.350;8.152;2023-08-06T05:31:53;991.4;;;21.92;51.01
54459;BME280;40368;49.350;8.152;2023-08-06T05:32:53;991.4;;;21.93;50.69
54459;BME280;40368;49.350;8.152;2023-08-06T05:33:53;991.4;;;21.94;50.75
54459;BME280;40368;49.350;8.152;2023-08-06T05:34:53;991.4;;;21.96;50.72
54459;BME280;40368;49.350;8.152;2023-08-06T05:35:53;991.4;;;21.98;50.71
54459;BME280;40368;49.350;8.152;2023-08-06T05:36:53;991.4;;;21.97;50.79